sensor_id;sensor_type;location;lat;lon;timestamp;pressure;altitude;pressure_sealevel;temperature;humidity
26443;BME280;5563;52.296;6.806;2023-04-25T00:02:03;100804.78;;;6.08;91.94
26443;BME280;5563;52.296;6.806;2023-04-25T00:04:37;100791.38;;;5.97;91.91
26443;BME280;5563;52.296;6.806;2023-04-25T00:07:18;100829.28;;;6.11;91.88
26443;BME280;5563;52.296;6.806;2023-04-25T00:09:45;100831.16;;;6.09;91.87
26443;BME280;5563;52.296;6.806;2023-04-25T00:12:18;100827.00;;;6.05;91.87
26443;BME280;5563;52.296;6.806;2023-04-25T00:14:51;100832.50;;;6.02;91.83
26443;BME280;5563;52.296;6.806;2023-04-25T00:17:19;100836.38;;;5.97;91.66
26443;BME280;5563;52.296;6.806;2023-04-25T00:19:52;100849.03;;;5.92;91.68
26443;BME280;5563;52.296;6.806;2023-04-25T00:22:19;100848.38;;;5.88;91.67
26443;BME280;5563;52.296;6.806;2023-04-25T00:24:52;100857.44;;;5.84;91.52
26443;BME280;5563;52.296;6.806;2023-04-25T00:27:20;100849.59;;;5.83;91.50
26443;BME280;5563;52.296;6.806;2023-04-25T00:29:53;100842.00;;;5.77;91.42
26443;BME280;5563;52.296;6.806;2023-04-25T00:32:26;100847.56;;;5.72;91.22
26443;BME280;5563;52.296;6.806;2023-04-25T00:34:59;100844.25;;;5.69;91.32
26443;BME280;5563;52.296;6.806;2023-04-25T00:37:26;100851.53;;;5.65;91.04
26443;BME280;5563;52.296;6.806;2023-04-25T00:39:59;100856.91;;;5.64;90.97
26443;BME280;5563;52.296;6.806;2023-04-25T00:42:32;100846.59;;;5.59;91.03
26443;BME280;5563;52.296;6.806;2023-04-25T00:44:59;100851.22;;;5.56;90.80
26443;BME280;5563;52.296;6.806;2023-04-25T00:47:34;100858.50;;;5.52;90.95
26443;BME280;5563;52.296;6.806;2023-04-25T00:50:02;100852.53;;;5.48;91.08
26443;BME280;5563;52.296;6.806;2023-04-25T00:52:37;100857.16;;;5.45;90.60
26443;BME280;5563;52.296;6.806;2023-04-25T00:55:07;100856.47;;;5.41;90.97
26443;BME280;5563;52.296;6.806;2023-04-25T00:57:40;100856.59;;;5.40;90.70
26443;BME280;5563;52.296;6.806;2023-04-25T01:00:09;100860.19;;;5.39;90.54
26443;BME280;5563;52.296;6.806;2023-04-25T01:02:44;100862.22;;;5.34;90.92
26443;BME280;5563;52.296;6.806;2023-04-25T01:05:25;100853.63;;;5.30;90.92
26443;BME280;5563;52.296;6.806;2023-04-25T01:07:58;100861.66;;;5.29;91.24
26443;BME280;5563;52.296;6.806;2023-04-25T01:10:32;100850.59;;;5.22;91.34
26443;BME280;5563;52.296;6.806;2023-04-25T01:13:05;100859.47;;;5.21;91.21
26443;BME280;5563;52.296;6.806;2023-04-25T01:15:32;100857.94;;;5.17;91.36
26443;BME280;5563;52.296;6.806;2023-04-25T01:18:06;100864.44;;;5.12;91.06
26443;BME280;5563;52.296;6.806;2023-04-25T01:20:41;100872.59;;;5.07;91.02
26443;BME280;5563;52.296;6.806;2023-04-25T01:23:14;100864.09;;;5.02;91.38
26443;BME280;5563;52.296;6.806;2023-04-25T01:25:41;100851.50;;;4.92;91.27
26443;BME280;5563;52.296;6.806;2023-04-25T01:28:16;100880.13;;;4.99;91.51
26443;BME280;5563;52.296;6.806;2023-04-25T01:30:43;100881.25;;;4.95;91.78
26443;BME280;5563;52.296;6.806;2023-04-25T01:33:11;100866.59;;;4.90;91.95
26443;BME280;5563;52.296;6.806;2023-04-25T01:35:46;100869.06;;;4.93;92.00
26443;BME280;5563;52.296;6.806;2023-04-25T01:38:14;100870.38;;;4.86;92.04
26443;BME280;5563;52.296;6.806;2023-04-25T01:40:49;100871.88;;;4.90;92.01
26443;BME280;5563;52.296;6.806;2023-04-25T01:43:17;100877.00;;;4.93;92.15
26443;BME280;5563;52.296;6.806;2023-04-25T01:45:51;100868.97;;;4.94;92.25
26443;BME280;5563;52.296;6.806;2023-04-25T01:48:19;100871.44;;;4.97;92.29
26443;BME280;5563;52.296;6.806;2023-04-25T01:50:46;100872.41;;;4.96;92.63
26443;BME280;5563;52.296;6.806;2023-04-25T01:53:19;100870.69;;;4.95;92.36
26443;BME280;5563;52.296;6.806;2023-04-25T01:55:52;100877.59;;;4.98;92.39
26443;BME280;5563;52.296;6.806;2023-04-25T01:58:19;100876.72;;;4.97;92.26
26443;BME280;5563;52.296;6.806;2023-04-25T02:00:52;100882.88;;;4.98;92.19
26443;BME280;5563;52.296;6.806;2023-04-25T02:03:19;100889.94;;;4.97;92.38
26443;BME280;5563;52.296;6.806;2023-04-25T02:05:52;100891.66;;;4.98;92.43
26443;BME280;5563;52.296;6.806;2023-04-25T02:08:39;100896.09;;;4.98;92.65
26443;BME280;5563;52.296;6.806;2023-04-25T02:11:06;100894.34;;;4.97;92.36
26443;BME280;5563;52.296;6.806;2023-04-25T02:13:39;100889.06;;;4.97;92.36
26443;BME280;5563;52.296;6.806;2023-04-25T02:16:06;100889.94;;;4.97;92.22
26443;BME280;5563;52.296;6.806;2023-04-25T02:18:39;100897.88;;;4.97;92.47
26443;BME280;5563;52.296;6.806;2023-04-25T02:21:13;100891.72;;;4.97;92.27
26443;BME280;5563;52.296;6.806;2023-04-25T02:23:46;100901.59;;;4.93;92.18
26443;BME280;5563;52.296;6.806;2023-04-25T02:26:21;100898.03;;;4.94;92.22
26443;BME280;5563;52.296;6.806;2023-04-25T02:28:57;100903.25;;;4.96;91.97
26443;BME280;5563;52.296;6.806;2023-04-25T02:31:30;100907.75;;;4.94;91.89
26443;BME280;5563;52.296;6.806;2023-04-25T02:33:57;100904.34;;;4.92;91.93
26443;BME280;5563;52.296;6.806;2023-04-25T02:36:30;100914.91;;;4.92;91.95
26443;BME280;5563;52.296;6.806;2023-04-25T02:39:07;100919.38;;;4.91;91.96
26443;BME280;5563;52.296;6.806;2023-04-25T02:41:34;100918.59;;;4.89;91.72
26443;BME280;5563;52.296;6.806;2023-04-25T02:44:07;100917.91;;;4.86;91.93
26443;BME280;5563;52.296;6.806;2023-04-25T02:46:40;100930.94;;;4.89;92.13
26443;BME280;5563;52.296;6.806;2023-04-25T02:49:13;100923.09;;;4.87;91.83
26443;BME280;5563;52.296;6.806;2023-04-25T02:51:46;100928.47;;;4.86;91.77
26443;BME280;5563;52.296;6.806;2023-04-25T02:54:13;100933.75;;;4.86;91.56
26443;BME280;5563;52.296;6.806;2023-04-25T02:56:46;100935.63;;;4.84;91.69
26443;BME280;5563;52.296;6.806;2023-04-25T02:59:19;100936.56;;;4.83;91.63
26443;BME280;5563;52.296;6.806;2023-04-25T03:01:52;100942.59;;;4.85;91.42
26443;BME280;5563;52.296;6.806;2023-04-25T03:04:25;100945.53;;;4.80;91.16
26443;BME280;5563;52.296;6.806;2023-04-25T03:06:58;100941.25;;;4.78;91.28
26443;BME280;5563;52.296;6.806;2023-04-25T03:09:31;100944.25;;;4.72;91.27
26443;BME280;5563;52.296;6.806;2023-04-25T03:12:12;100945.16;;;4.71;90.84
26443;BME280;5563;52.296;6.806;2023-04-25T03:14:45;100942.59;;;4.69;91.14
26443;BME280;5563;52.296;6.806;2023-04-25T03:17:12;100940.16;;;4.66;90.71
26443;BME280;5563;52.296;6.806;2023-04-25T03:19:45;100942.00;;;4.64;90.79
26443;BME280;5563;52.296;6.806;2023-04-25T03:22:18;100947.22;;;4.66;90.82
26443;BME280;5563;52.296;6.806;2023-04-25T03:24:51;100947.38;;;4.63;90.72
26443;BME280;5563;52.296;6.806;2023-04-25T03:27:18;100939.59;;;4.60;90.54
26443;BME280;5563;52.296;6.806;2023-04-25T03:29:51;100939.00;;;4.55;90.59
26443;BME280;5563;52.296;6.806;2023-04-25T03:32:18;100952.06;;;4.58;90.35
26443;BME280;5563;52.296;6.806;2023-04-25T03:34:51;100952.22;;;4.55;90.60
26443;BME280;5563;52.296;6.806;2023-04-25T03:37:20;100940.97;;;4.51;90.40
26443;BME280;5563;52.296;6.806;2023-04-25T03:39:54;100953.84;;;4.57;90.28
26443;BME280;5563;52.296;6.806;2023-04-25T03:42:27;100946.06;;;4.54;90.22
26443;BME280;5563;52.296;6.806;2023-04-25T03:44:54;100940.38;;;4.46;90.31
26443;BME280;5563;52.296;6.806;2023-04-25T03:47:27;100960.13;;;4.55;90.11
26443;BME280;5563;52.296;6.806;2023-04-25T03:49:54;100958.44;;;4.54;90.25
26443;BME280;5563;52.296;6.806;2023-04-25T03:52:27;100962.78;;;4.55;90.13
26443;BME280;5563;52.296;6.806;2023-04-25T03:54:54;100961.91;;;4.54;90.20
26443;BME280;5563;52.296;6.806;2023-04-25T03:57:27;100964.72;;;4.51;90.09
26443;BME280;5563;52.296;6.806;2023-04-25T03:59:54;100978.63;;;4.55;90.31
26443;BME280;5563;52.296;6.806;2023-04-25T04:02:27;100978.63;;;4.55;90.41
26443;BME280;5563;52.296;6.806;2023-04-25T04:04:54;100975.19;;;4.53;90.48
26443;BME280;5563;52.296;6.806;2023-04-25T04:07:36;100976.06;;;4.53;90.19
26443;BME280;5563;52.296;6.806;2023-04-25T04:10:07;100973.50;;;4.52;90.20
26443;BME280;5563;52.296;6.806;2023-04-25T04:12:40;100988.41;;;4.53;90.27
26443;BME280;5563;52.296;6.806;2023-04-25T04:15:07;100994.47;;;4.55;90.38
26443;BME280;5563;52.296;6.806;2023-04-25T04:17:41;100985.84;;;4.51;90.37
26443;BME280;5563;52.296;6.806;2023-04-25T04:20:14;100981.44;;;4.52;90.27
26443;BME280;5563;52.296;6.806;2023-04-25T04:22:41;100983.13;;;4.53;90.26
26443;BME280;5563;52.296;6.806;2023-04-25T04:25:15;100966.09;;;4.43;90.48
26443;BME280;5563;52.296;6.806;2023-04-25T04:27:42;100975.47;;;4.48;90.19
26443;BME280;5563;52.296;6.806;2023-04-25T04:30:17;100979.09;;;4.46;90.33
26443;BME280;5563;52.296;6.806;2023-04-25T04:32:51;100979.28;;;4.43;90.21
26443;BME280;5563;52.296;6.806;2023-04-25T04:35:24;101000.78;;;4.52;90.13
26443;BME280;5563;52.296;6.806;2023-04-25T04:37:51;100992.00;;;4.52;90.53
26443;BME280;5563;52.296;6.806;2023-04-25T04:40:24;101005.09;;;4.53;90.19
26443;BME280;5563;52.296;6.806;2023-04-25T04:42:52;101005.97;;;4.54;90.32
26443;BME280;5563;52.296;6.806;2023-04-25T04:45:26;101011.16;;;4.55;90.17
26443;BME280;5563;52.296;6.806;2023-04-25T04:47:54;101010.22;;;4.56;90.52
26443;BME280;5563;52.296;6.806;2023-04-25T04:50:21;101012.81;;;4.58;90.24
26443;BME280;5563;52.296;6.806;2023-04-25T04:52:55;101003.56;;;4.49;90.20
26443;BME280;5563;52.296;6.806;2023-04-25T04:55:22;101018.91;;;4.58;90.54
26443;BME280;5563;52.296;6.806;2023-04-25T04:58:02;101025.81;;;4.61;90.33
26443;BME280;5563;52.296;6.806;2023-04-25T05:00:29;101024.09;;;4.60;90.38
26443;BME280;5563;52.296;6.806;2023-04-25T05:03:05;101025.81;;;4.61;90.42
26443;BME280;5563;52.296;6.806;2023-04-25T05:05:33;101031.88;;;4.63;90.35
26443;BME280;5563;52.296;6.806;2023-04-25T05:08:16;101031.97;;;4.61;90.50
26443;BME280;5563;52.296;6.806;2023-04-25T05:10:49;101035.34;;;4.63;90.13
26443;BME280;5563;52.296;6.806;2023-04-25T05:13:17;101034.25;;;4.67;90.16
26443;BME280;5563;52.296;6.806;2023-04-25T05:15:51;101036.81;;;4.69;90.27
26443;BME280;5563;52.296;6.806;2023-04-25T05:18:21;101042.09;;;4.69;90.09
26443;BME280;5563;52.296;6.806;2023-04-25T05:20:54;101045.53;;;4.71;90.18
26443;BME280;5563;52.296;6.806;2023-04-25T05:23:28;101046.38;;;4.71;90.35
26443;BME280;5563;52.296;6.806;2023-04-25T05:26:13;101047.84;;;4.77;90.24
26443;BME280;5563;52.296;6.806;2023-04-25T05:28:46;101053.81;;;4.80;90.01
26443;BME280;5563;52.296;6.806;2023-04-25T05:31:13;101057.28;;;4.81;90.15
26443;BME280;5563;52.296;6.806;2023-04-25T05:33:46;101057.97;;;4.84;89.79
26443;BME280;5563;52.296;6.806;2023-04-25T05:36:26;101056.88;;;4.88;89.86
26443;BME280;5563;52.296;6.806;2023-04-25T05:39:00;101056.78;;;4.90;89.85
26443;BME280;5563;52.296;6.806;2023-04-25T05:41:27;101066.03;;;4.98;89.93
26443;BME280;5563;52.296;6.806;2023-04-25T05:44:00;101070.06;;;5.05;89.67
26443;BME280;5563;52.296;6.806;2023-04-25T05:46:33;101079.41;;;5.11;89.30
26443;BME280;5563;52.296;6.806;2023-04-25T05:49:00;101071.66;;;5.08;89.11
26443;BME280;5563;52.296;6.806;2023-04-25T05:51:33;101069.97;;;5.07;88.74
26443;BME280;5563;52.296;6.806;2023-04-25T05:54:07;101086.25;;;5.15;88.49
26443;BME280;5563;52.296;6.806;2023-04-25T05:56:33;101079.16;;;5.15;88.65
26443;BME280;5563;52.296;6.806;2023-04-25T05:59:07;101081.63;;;5.18;87.86
26443;BME280;5563;52.296;6.806;2023-04-25T06:01:34;101088.56;;;5.21;87.41
26443;BME280;5563;52.296;6.806;2023-04-25T06:04:07;101088.56;;;5.21;87.58
26443;BME280;5563;52.296;6.806;2023-04-25T06:06:34;101098.53;;;5.31;87.52
26443;BME280;5563;52.296;6.806;2023-04-25T06:09:14;101104.44;;;5.36;86.11
26443;BME280;5563;52.296;6.806;2023-04-25T06:11:41;101103.31;;;5.40;86.78
26443;BME280;5563;52.296;6.806;2023-04-25T06:14:14;101103.91;;;5.45;86.24
26443;BME280;5563;52.296;6.806;2023-04-25T06:16:41;101106.38;;;5.48;86.55
26443;BME280;5563;52.296;6.806;2023-04-25T06:19:14;101107.84;;;5.54;85.10
26443;BME280;5563;52.296;6.806;2023-04-25T06:21:43;101108.78;;;5.53;83.46
26443;BME280;5563;52.296;6.806;2023-04-25T06:24:16;101116.44;;;5.58;83.65
26443;BME280;5563;52.296;6.806;2023-04-25T06:26:49;101118.09;;;5.60;83.47
26443;BME280;5563;52.296;6.806;2023-04-25T06:29:16;101120.38;;;5.66;83.78
26443;BME280;5563;52.296;6.806;2023-04-25T06:31:49;101122.88;;;5.69;83.47
26443;BME280;5563;52.296;6.806;2023-04-25T06:34:16;101121.66;;;5.75;83.39
26443;BME280;5563;52.296;6.806;2023-04-25T06:36:50;101136.31;;;5.80;82.79
26443;BME280;5563;52.296;6.806;2023-04-25T06:39:17;101115.34;;;5.77;83.34
26443;BME280;5563;52.296;6.806;2023-04-25T06:41:50;101125.16;;;5.91;82.20
26443;BME280;5563;52.296;6.806;2023-04-25T06:44:17;101128.41;;;5.96;82.54
26443;BME280;5563;52.296;6.806;2023-04-25T06:46:51;101120.63;;;5.93;82.24
26443;BME280;5563;52.296;6.806;2023-04-25T06:49:18;101126.69;;;5.95;82.25
26443;BME280;5563;52.296;6.806;2023-04-25T06:51:51;101133.09;;;5.91;82.42
26443;BME280;5563;52.296;6.806;2023-04-25T06:54:18;101134.13;;;5.88;82.70
26443;BME280;5563;52.296;6.806;2023-04-25T06:56:45;101146.94;;;5.96;82.72
26443;BME280;5563;52.296;6.806;2023-04-25T06:59:18;101150.66;;;6.07;82.84
26443;BME280;5563;52.296;6.806;2023-04-25T07:01:45;101149.28;;;6.16;80.95
26443;BME280;5563;52.296;6.806;2023-04-25T07:04:18;101148.16;;;6.20;80.25
26443;BME280;5563;52.296;6.806;2023-04-25T07:06:53;101151.41;;;6.25;79.68
26443;BME280;5563;52.296;6.806;2023-04-25T07:09:26;101149.41;;;6.28;79.14
26443;BME280;5563;52.296;6.806;2023-04-25T07:11:53;101149.31;;;6.30;78.98
26443;BME280;5563;52.296;6.806;2023-04-25T07:14:27;101134.75;;;6.23;78.08
26443;BME280;5563;52.296;6.806;2023-04-25T07:16:54;101148.66;;;6.26;77.76
26443;BME280;5563;52.296;6.806;2023-04-25T07:19:29;101134.84;;;6.21;79.02
26443;BME280;5563;52.296;6.806;2023-04-25T07:21:56;101144.13;;;6.28;78.11
26443;BME280;5563;52.296;6.806;2023-04-25T07:24:29;101140.13;;;6.21;78.42
26443;BME280;5563;52.296;6.806;2023-04-25T07:26:56;101144.56;;;6.21;77.46
26443;BME280;5563;52.296;6.806;2023-04-25T07:29:30;101145.44;;;6.21;79.05
26443;BME280;5563;52.296;6.806;2023-04-25T07:31:58;101156.16;;;6.34;79.18
26443;BME280;5563;52.296;6.806;2023-04-25T07:34:32;101152.22;;;6.41;78.84
26443;BME280;5563;52.296;6.806;2023-04-25T07:36:59;101151.38;;;6.54;77.74
26443;BME280;5563;52.296;6.806;2023-04-25T07:39:32;101134.22;;;6.62;77.91
26443;BME280;5563;52.296;6.806;2023-04-25T07:42:05;101143.50;;;6.83;76.27
26443;BME280;5563;52.296;6.806;2023-04-25T07:44:34;101163.78;;;6.98;75.17
26443;BME280;5563;52.296;6.806;2023-04-25T07:47:11;101168.31;;;7.10;76.61
26443;BME280;5563;52.296;6.806;2023-04-25T07:49:38;101155.06;;;7.10;74.13
26443;BME280;5563;52.296;6.806;2023-04-25T07:52:12;101175.06;;;7.29;72.83
26443;BME280;5563;52.296;6.806;2023-04-25T07:54:39;101170.97;;;7.38;70.65
26443;BME280;5563;52.296;6.806;2023-04-25T07:57:16;101177.53;;;7.46;68.52
26443;BME280;5563;52.296;6.806;2023-04-25T07:59:49;101174.47;;;7.52;67.36
26443;BME280;5563;52.296;6.806;2023-04-25T08:02:22;101184.97;;;7.68;67.07
26443;BME280;5563;52.296;6.806;2023-04-25T08:04:49;101185.25;;;7.63;66.13
26443;BME280;5563;52.296;6.806;2023-04-25T08:07:22;101192.19;;;7.66;66.58
26443;BME280;5563;52.296;6.806;2023-04-25T08:09:55;101189.69;;;7.77;67.00
26443;BME280;5563;52.296;6.806;2023-04-25T08:12:28;101192.13;;;7.94;67.38
26443;BME280;5563;52.296;6.806;2023-04-25T08:15:03;101183.91;;;8.11;67.07
26443;BME280;5563;52.296;6.806;2023-04-25T08:17:30;101198.16;;;8.24;64.89
26443;BME280;5563;52.296;6.806;2023-04-25T08:20:04;101206.28;;;8.35;63.04
26443;BME280;5563;52.296;6.806;2023-04-25T08:22:32;101201.59;;;8.39;61.94
26443;BME280;5563;52.296;6.806;2023-04-25T08:25:07;101206.81;;;8.40;63.23
26443;BME280;5563;52.296;6.806;2023-04-25T08:27:34;101194.28;;;8.42;64.45
26443;BME280;5563;52.296;6.806;2023-04-25T08:30:08;101197.28;;;8.50;61.93
26443;BME280;5563;52.296;6.806;2023-04-25T08:32:35;101209.59;;;8.51;61.77
26443;BME280;5563;52.296;6.806;2023-04-25T08:35:10;101210.44;;;8.52;62.22
26443;BME280;5563;52.296;6.806;2023-04-25T08:37:37;101225.78;;;8.61;61.59
26443;BME280;5563;52.296;6.806;2023-04-25T08:40:14;101231.09;;;8.61;61.15
26443;BME280;5563;52.296;6.806;2023-04-25T08:42:42;101209.09;;;8.59;62.00
26443;BME280;5563;52.296;6.806;2023-04-25T08:45:15;101220.63;;;8.72;59.72
26443;BME280;5563;52.296;6.806;2023-04-25T08:47:43;101203.06;;;8.69;61.56
26443;BME280;5563;52.296;6.806;2023-04-25T08:50:18;101223.09;;;8.88;61.60
26443;BME280;5563;52.296;6.806;2023-04-25T08:52:49;101237.25;;;9.01;60.71
26443;BME280;5563;52.296;6.806;2023-04-25T08:55:26;101226.91;;;8.96;60.20
26443;BME280;5563;52.296;6.806;2023-04-25T08:58:00;101239.94;;;9.13;60.18
26443;BME280;5563;52.296;6.806;2023-04-25T09:00:33;101242.38;;;9.16;58.51
26443;BME280;5563;52.296;6.806;2023-04-25T09:03:08;101253.16;;;9.27;58.56
26443;BME280;5563;52.296;6.806;2023-04-25T09:05:36;101263.91;;;9.26;57.56
26443;BME280;5563;52.296;6.806;2023-04-25T09:08:19;101258.34;;;9.29;60.27
26443;BME280;5563;52.296;6.806;2023-04-25T09:10:46;101263.47;;;9.44;60.79
26443;BME280;5563;52.296;6.806;2023-04-25T09:13:27;101253.88;;;9.42;60.22
26443;BME280;5563;52.296;6.806;2023-04-25T09:15:57;101276.47;;;9.36;58.80
26443;BME280;5563;52.296;6.806;2023-04-25T09:18:34;101267.28;;;9.15;58.03
26443;BME280;5563;52.296;6.806;2023-04-25T09:23:48;101270.06;;;9.51;60.07
26443;BME280;5563;52.296;6.806;2023-04-25T09:26:17;101265.88;;;9.85;59.95
26443;BME280;5563;52.296;6.806;2023-04-25T09:29:05;101274.50;;;10.14;56.95
26443;BME280;5563;52.296;6.806;2023-04-25T09:31:33;101256.19;;;9.97;57.68
26443;BME280;5563;52.296;6.806;2023-04-25T09:34:07;101254.47;;;9.83;57.46
26443;BME280;5563;52.296;6.806;2023-04-25T09:36:34;101277.28;;;10.12;59.35
26443;BME280;5563;52.296;6.806;2023-04-25T09:39:12;101275.41;;;10.25;59.52
26443;BME280;5563;52.296;6.806;2023-04-25T09:41:53;101306.81;;;10.09;60.07
26443;BME280;5563;52.296;6.806;2023-04-25T09:44:26;101346.31;;;9.52;62.27
26443;BME280;5563;52.296;6.806;2023-04-25T09:46:53;101325.75;;;8.63;65.80
26443;BME280;5563;52.296;6.806;2023-04-25T09:49:20;101330.19;;;8.08;69.13
26443;BME280;5563;52.296;6.806;2023-04-25T09:51:56;101340.97;;;7.63;70.64
26443;BME280;5563;52.296;6.806;2023-04-25T09:54:24;101324.06;;;7.22;72.33
26443;BME280;5563;52.296;6.806;2023-04-25T09:57:05;101340.56;;;7.11;71.67
26443;BME280;5563;52.296;6.806;2023-04-25T09:59:51;101333.38;;;7.13;71.29
26443;BME280;5563;52.296;6.806;2023-04-25T10:02:26;101334.59;;;7.37;71.28
26443;BME280;5563;52.296;6.806;2023-04-25T10:04:55;101335.50;;;7.80;71.54
26443;BME280;5563;52.296;6.806;2023-04-25T10:07:33;101339.28;;;8.32;69.72
26443;BME280;5563;52.296;6.806;2023-04-25T10:10:12;101339.28;;;8.73;64.56
26443;BME280;5563;52.296;6.806;2023-04-25T10:12:46;101331.09;;;9.03;67.53
26443;BME280;5563;52.296;6.806;2023-04-25T10:15:13;101339.13;;;9.28;64.50
26443;BME280;5563;52.296;6.806;2023-04-25T10:17:49;101338.94;;;9.31;65.37
26443;BME280;5563;52.296;6.806;2023-04-25T10:20:16;101329.03;;;9.33;64.26
26443;BME280;5563;52.296;6.806;2023-04-25T10:22:54;101332.56;;;9.58;62.23
26443;BME280;5563;52.296;6.806;2023-04-25T10:25:23;101332.03;;;9.78;61.15
26443;BME280;5563;52.296;6.806;2023-04-25T10:27:59;101326.38;;;10.08;60.74
26443;BME280;5563;52.296;6.806;2023-04-25T10:30:26;101327.97;;;10.36;60.73
26443;BME280;5563;52.296;6.806;2023-04-25T10:32:59;101330.94;;;10.67;59.43
26443;BME280;5563;52.296;6.806;2023-04-25T10:35:28;101321.97;;;10.92;57.88
26443;BME280;5563;52.296;6.806;2023-04-25T10:38:09;101316.88;;;11.24;56.77
26443;BME280;5563;52.296;6.806;2023-04-25T10:41:02;101321.34;;;11.23;57.30
26443;BME280;5563;52.296;6.806;2023-04-25T10:43:41;101330.84;;;10.93;56.26
26443;BME280;5563;52.296;6.806;2023-04-25T10:46:27;101325.50;;;10.69;55.23
26443;BME280;5563;52.296;6.806;2023-04-25T10:49:02;101330.03;;;10.43;56.31
26443;BME280;5563;52.296;6.806;2023-04-25T10:51:31;101329.03;;;10.21;53.52
26443;BME280;5563;52.296;6.806;2023-04-25T10:54:22;101317.09;;;10.62;54.31
26443;BME280;5563;52.296;6.806;2023-04-25T10:56:50;101332.59;;;10.81;52.23
26443;BME280;5563;52.296;6.806;2023-04-25T10:59:24;101332.47;;;10.82;53.63
26443;BME280;5563;52.296;6.806;2023-04-25T11:01:57;101339.81;;;10.55;53.64
26443;BME280;5563;52.296;6.806;2023-04-25T11:04:32;101335.53;;;9.92;56.82
26443;BME280;5563;52.296;6.806;2023-04-25T11:07:50;101350.09;;;9.36;59.69
26443;BME280;5563;52.296;6.806;2023-04-25T11:10:34;101345.97;;;9.05;62.30
26443;BME280;5563;52.296;6.806;2023-04-25T11:13:10;101349.84;;;9.14;60.57
26443;BME280;5563;52.296;6.806;2023-04-25T11:15:37;101352.97;;;9.20;58.28
26443;BME280;5563;52.296;6.806;2023-04-25T11:18:15;101356.13;;;9.13;59.06
26443;BME280;5563;52.296;6.806;2023-04-25T11:20:49;101346.75;;;9.07;57.13
26443;BME280;5563;52.296;6.806;2023-04-25T11:23:22;101348.41;;;8.96;57.36
26443;BME280;5563;52.296;6.806;2023-04-25T11:25:56;101359.50;;;9.02;56.93
26443;BME280;5563;52.296;6.806;2023-04-25T11:28:29;101357.16;;;9.10;57.70
26443;BME280;5563;52.296;6.806;2023-04-25T11:30:57;101358.28;;;9.20;57.50
26443;BME280;5563;52.296;6.806;2023-04-25T11:33:30;101349.03;;;9.38;57.16
26443;BME280;5563;52.296;6.806;2023-04-25T11:35:57;101355.47;;;9.61;54.99
26443;BME280;5563;52.296;6.806;2023-04-25T11:38:30;101348.13;;;9.77;54.08
26443;BME280;5563;52.296;6.806;2023-04-25T11:41:03;101343.75;;;10.01;52.19
26443;BME280;5563;52.296;6.806;2023-04-25T11:43:30;101339.75;;;10.44;51.37
26443;BME280;5563;52.296;6.806;2023-04-25T11:46:07;101347.34;;;10.98;52.94
26443;BME280;5563;52.296;6.806;2023-04-25T11:48:41;101344.22;;;11.38;50.92
26443;BME280;5563;52.296;6.806;2023-04-25T11:51:17;101356.88;;;11.58;49.50
26443;BME280;5563;52.296;6.806;2023-04-25T11:53:44;101379.41;;;11.09;53.70
26443;BME280;5563;52.296;6.806;2023-04-25T11:56:17;101380.00;;;10.29;56.08
26443;BME280;5563;52.296;6.806;2023-04-25T11:59:02;101384.97;;;9.83;57.83
26443;BME280;5563;52.296;6.806;2023-04-25T12:01:41;101396.66;;;9.43;58.99
26443;BME280;5563;52.296;6.806;2023-04-25T12:04:15;101403.63;;;9.05;61.39
26443;BME280;5563;52.296;6.806;2023-04-25T12:06:56;101394.91;;;8.76;63.46
26443;BME280;5563;52.296;6.806;2023-04-25T12:09:31;101380.16;;;8.58;64.00
26443;BME280;5563;52.296;6.806;2023-04-25T12:12:09;101397.88;;;8.57;64.06
26443;BME280;5563;52.296;6.806;2023-04-25T12:14:46;101407.94;;;8.66;62.40
26443;BME280;5563;52.296;6.806;2023-04-25T12:17:14;101402.13;;;8.74;62.87
26443;BME280;5563;52.296;6.806;2023-04-25T12:19:49;101404.94;;;8.85;62.46
26443;BME280;5563;52.296;6.806;2023-04-25T12:22:24;101397.59;;;9.03;60.52
26443;BME280;5563;52.296;6.806;2023-04-25T12:24:57;101398.81;;;9.63;60.56
26443;BME280;5563;52.296;6.806;2023-04-25T12:27:31;101400.00;;;10.34;58.81
26443;BME280;5563;52.296;6.806;2023-04-25T12:29:58;101399.47;;;10.91;55.76
26443;BME280;5563;52.296;6.806;2023-04-25T12:32:31;101382.47;;;10.92;51.39
26443;BME280;5563;52.296;6.806;2023-04-25T12:35:05;101388.00;;;11.01;53.73
26443;BME280;5563;52.296;6.806;2023-04-25T12:37:33;101392.59;;;11.23;51.38
26443;BME280;5563;52.296;6.806;2023-04-25T12:40:07;101394.91;;;11.62;52.06
26443;BME280;5563;52.296;6.806;2023-04-25T12:42:35;101394.16;;;11.94;51.96
26443;BME280;5563;52.296;6.806;2023-04-25T12:45:08;101398.78;;;12.04;49.93
26443;BME280;5563;52.296;6.806;2023-04-25T12:47:42;101391.63;;;11.93;49.18
26443;BME280;5563;52.296;6.806;2023-04-25T12:50:15;101390.41;;;11.62;50.76
26443;BME280;5563;52.296;6.806;2023-04-25T12:52:48;101382.91;;;11.09;50.51
26443;BME280;5563;52.296;6.806;2023-04-25T12:55:21;101398.63;;;10.77;50.50
26443;BME280;5563;52.296;6.806;2023-04-25T12:57:55;101405.44;;;10.45;51.17
26443;BME280;5563;52.296;6.806;2023-04-25T13:00:21;101416.31;;;9.92;56.49
26443;BME280;5563;52.296;6.806;2023-04-25T13:02:55;101408.53;;;9.37;59.79
26443;BME280;5563;52.296;6.806;2023-04-25T13:05:22;101412.28;;;9.47;61.97
26443;BME280;5563;52.296;6.806;2023-04-25T13:08:02;101410.03;;;9.80;61.28
26443;BME280;5563;52.296;6.806;2023-04-25T13:10:29;101410.38;;;10.26;59.43
26443;BME280;5563;52.296;6.806;2023-04-25T13:13:02;101422.72;;;10.27;53.00
26443;BME280;5563;52.296;6.806;2023-04-25T13:15:36;101418.25;;;10.15;52.96
26443;BME280;5563;52.296;6.806;2023-04-25T13:18:09;101416.75;;;9.86;51.12
26443;BME280;5563;52.296;6.806;2023-04-25T13:20:43;101423.59;;;9.51;52.17
26443;BME280;5563;52.296;6.806;2023-04-25T13:23:09;101421.41;;;9.31;52.98
26443;BME280;5563;52.296;6.806;2023-04-25T13:25:42;101429.09;;;9.35;53.41
26443;BME280;5563;52.296;6.806;2023-04-25T13:28:16;101427.06;;;9.39;52.93
26443;BME280;5563;52.296;6.806;2023-04-25T13:30:50;101430.00;;;9.61;54.22
26443;BME280;5563;52.296;6.806;2023-04-25T13:33:18;101427.69;;;9.81;54.37
26443;BME280;5563;52.296;6.806;2023-04-25T13:35:53;101426.00;;;9.93;54.19
26443;BME280;5563;52.296;6.806;2023-04-25T13:38:25;101418.09;;;10.04;53.89
26443;BME280;5563;52.296;6.806;2023-04-25T13:40:59;101425.94;;;10.32;54.33